sensor_id;sensor_type;location;lat;lon;timestamp;temperature;humidity
24618;DHT22;12762;51.730;5.356;2023-05-28T00:00:48;15.00;58.40
24618;DHT22;12762;51.730;5.356;2023-05-28T00:03:15;15.00;58.20
24618;DHT22;12762;51.730;5.356;2023-05-28T00:05:47;14.90;58.20
24618;DHT22;12762;51.730;5.356;2023-05-28T00:08:14;14.90;58.50
24618;DHT22;12762;51.730;5.356;2023-05-28T00:10:42;14.80;58.60
24618;DHT22;12762;51.730;5.356;2023-05-28T00:13:12;14.80;59.00
24618;DHT22;12762;51.730;5.356;2023-05-28T00:15:38;14.70;59.10
24618;DHT22;12762;51.730;5.356;2023-05-28T00:18:05;14.70;59.10
24618;DHT22;12762;51.730;5.356;2023-05-28T00:20:32;14.70;58.80
24618;DHT22;12762;51.730;5.356;2023-05-28T00:22:59;14.60;59.00
24618;DHT22;12762;51.730;5.356;2023-05-28T00:25:27;14.60;59.20
24618;DHT22;12762;51.730;5.356;2023-05-28T00:27:56;14.60;59.60
24618;DHT22;12762;51.730;5.356;2023-05-28T00:30:23;14.50;60.00
24618;DHT22;12762;51.730;5.356;2023-05-28T00:32:51;14.50;59.90
24618;DHT22;12762;51.730;5.356;2023-05-28T00:35:18;14.50;60.00
24618;DHT22;12762;51.730;5.356;2023-05-28T00:37:45;14.50;60.30
24618;DHT22;12762;51.730;5.356;2023-05-28T00:40:12;14.50;60.40
24618;DHT22;12762;51.730;5.356;2023-05-28T00:42:43;14.40;60.40
24618;DHT22;12762;51.730;5.356;2023-05-28T00:45:10;14.40;60.70
24618;DHT22;12762;51.730;5.356;2023-05-28T00:47:39;14.40;61.00
24618;DHT22;12762;51.730;5.356;2023-05-28T00:50:08;14.40;61.00
24618;DHT22;12762;51.730;5.356;2023-05-28T00:52:36;14.40;60.90
24618;DHT22;12762;51.730;5.356;2023-05-28T00:55:15;14.30;60.90
24618;DHT22;12762;51.730;5.356;2023-05-28T00:57:46;14.30;61.40
24618;DHT22;12762;51.730;5.356;2023-05-28T01:00:13;14.30;61.20
24618;DHT22;12762;51.730;5.356;2023-05-28T01:02:40;14.20;61.10
24618;DHT22;12762;51.730;5.356;2023-05-28T01:05:10;14.20;61.40
24618;DHT22;12762;51.730;5.356;2023-05-28T01:07:37;14.20;61.60
24618;DHT22;12762;51.730;5.356;2023-05-28T01:10:07;14.20;61.20
24618;DHT22;12762;51.730;5.356;2023-05-28T01:12:35;14.20;61.30
24618;DHT22;12762;51.730;5.356;2023-05-28T01:15:03;14.10;61.00
24618;DHT22;12762;51.730;5.356;2023-05-28T01:17:30;14.10;61.50
24618;DHT22;12762;51.730;5.356;2023-05-28T01:19:58;14.10;61.80
24618;DHT22;12762;51.730;5.356;2023-05-28T01:22:35;14.10;61.90
24618;DHT22;12762;51.730;5.356;2023-05-28T01:25:06;14.00;62.00
24618;DHT22;12762;51.730;5.356;2023-05-28T01:27:39;14.00;62.00
24618;DHT22;12762;51.730;5.356;2023-05-28T01:30:07;14.00;62.40
24618;DHT22;12762;51.730;5.356;2023-05-28T01:32:36;14.00;62.40
24618;DHT22;12762;51.730;5.356;2023-05-28T01:35:05;13.90;62.40
24618;DHT22;12762;51.730;5.356;2023-05-28T01:37:36;13.90;62.30
24618;DHT22;12762;51.730;5.356;2023-05-28T01:40:04;13.90;62.70
24618;DHT22;12762;51.730;5.356;2023-05-28T01:42:34;13.90;62.60
24618;DHT22;12762;51.730;5.356;2023-05-28T01:45:03;13.80;62.60
24618;DHT22;12762;51.730;5.356;2023-05-28T01:47:31;13.80;62.30
24618;DHT22;12762;51.730;5.356;2023-05-28T01:49:59;13.80;62.10
24618;DHT22;12762;51.730;5.356;2023-05-28T01:52:26;13.80;62.10
24618;DHT22;12762;51.730;5.356;2023-05-28T01:54:52;13.70;62.40
24618;DHT22;12762;51.730;5.356;2023-05-28T01:57:19;13.70;62.40
24618;DHT22;12762;51.730;5.356;2023-05-28T01:59:46;13.60;62.30
24618;DHT22;12762;51.730;5.356;2023-05-28T02:02:13;13.60;62.50
24618;DHT22;12762;51.730;5.356;2023-05-28T02:04:40;13.60;62.50
24618;DHT22;12762;51.730;5.356;2023-05-28T02:07:07;13.50;62.60
24618;DHT22;12762;51.730;5.356;2023-05-28T02:09:34;13.50;62.80
24618;DHT22;12762;51.730;5.356;2023-05-28T02:12:01;13.40;63.00
24618;DHT22;12762;51.730;5.356;2023-05-28T02:14:29;13.40;63.40
24618;DHT22;12762;51.730;5.356;2023-05-28T02:16:56;13.30;63.50
24618;DHT22;12762;51.730;5.356;2023-05-28T02:19:23;13.30;63.50
24618;DHT22;12762;51.730;5.356;2023-05-28T02:21:52;13.30;63.60
24618;DHT22;12762;51.730;5.356;2023-05-28T02:24:19;13.30;63.80
24618;DHT22;12762;51.730;5.356;2023-05-28T02:26:46;13.30;63.90
24618;DHT22;12762;51.730;5.356;2023-05-28T02:29:13;13.30;63.90
24618;DHT22;12762;51.730;5.356;2023-05-28T02:31:40;13.30;64.20
24618;DHT22;12762;51.730;5.356;2023-05-28T02:34:07;13.20;64.10
24618;DHT22;12762;51.730;5.356;2023-05-28T02:36:37;13.20;64.30
24618;DHT22;12762;51.730;5.356;2023-05-28T02:39:04;13.20;64.40
24618;DHT22;12762;51.730;5.356;2023-05-28T02:41:31;13.10;64.30
24618;DHT22;12762;51.730;5.356;2023-05-28T02:43:58;13.10;64.30
24618;DHT22;12762;51.730;5.356;2023-05-28T02:46:24;13.10;64.60
24618;DHT22;12762;51.730;5.356;2023-05-28T02:48:51;13.10;64.60
24618;DHT22;12762;51.730;5.356;2023-05-28T02:51:18;13.00;64.80
24618;DHT22;12762;51.730;5.356;2023-05-28T02:53:45;13.00;64.90
24618;DHT22;12762;51.730;5.356;2023-05-28T02:56:14;13.00;65.00
24618;DHT22;12762;51.730;5.356;2023-05-28T02:58:41;13.00;64.90
24618;DHT22;12762;51.730;5.356;2023-05-28T03:01:08;12.90;64.90
24618;DHT22;12762;51.730;5.356;2023-05-28T03:03:35;12.90;65.80
24618;DHT22;12762;51.730;5.356;2023-05-28T03:06:02;12.90;64.90
24618;DHT22;12762;51.730;5.356;2023-05-28T03:08:29;12.90;64.80
24618;DHT22;12762;51.730;5.356;2023-05-28T03:10:56;12.90;65.00
24618;DHT22;12762;51.730;5.356;2023-05-28T03:13:26;12.80;64.80
24618;DHT22;12762;51.730;5.356;2023-05-28T03:15:52;12.90;64.90
24618;DHT22;12762;51.730;5.356;2023-05-28T03:18:20;12.80;65.10
24618;DHT22;12762;51.730;5.356;2023-05-28T03:20:49;12.90;65.50
24618;DHT22;12762;51.730;5.356;2023-05-28T03:23:20;12.80;65.40
24618;DHT22;12762;51.730;5.356;2023-05-28T03:25:47;12.80;65.60
24618;DHT22;12762;51.730;5.356;2023-05-28T03:28:14;12.80;65.80
24618;DHT22;12762;51.730;5.356;2023-05-28T03:30:41;12.80;65.80
24618;DHT22;12762;51.730;5.356;2023-05-28T03:33:10;12.80;65.90
24618;DHT22;12762;51.730;5.356;2023-05-28T03:35:37;12.80;65.90
24618;DHT22;12762;51.730;5.356;2023-05-28T03:38:04;12.80;66.10
24618;DHT22;12762;51.730;5.356;2023-05-28T03:40:31;12.80;66.10
24618;DHT22;12762;51.730;5.356;2023-05-28T03:42:57;12.80;66.20
24618;DHT22;12762;51.730;5.356;2023-05-28T03:45:24;12.80;66.30
24618;DHT22;12762;51.730;5.356;2023-05-28T03:47:51;12.70;66.30
24618;DHT22;12762;51.730;5.356;2023-05-28T03:50:18;12.70;66.40
24618;DHT22;12762;51.730;5.356;2023-05-28T03:52:45;12.70;66.30
24618;DHT22;12762;51.730;5.356;2023-05-28T03:55:12;12.70;66.50
24618;DHT22;12762;51.730;5.356;2023-05-28T03:57:42;12.70;66.40
24618;DHT22;12762;51.730;5.356;2023-05-28T04:00:09;12.70;66.60
24618;DHT22;12762;51.730;5.356;2023-05-28T04:02:36;12.70;66.70
24618;DHT22;12762;51.730;5.356;2023-05-28T04:05:04;12.70;66.70
24618;DHT22;12762;51.730;5.356;2023-05-28T04:07:31;12.70;66.40
24618;DHT22;12762;51.730;5.356;2023-05-28T04:09:58;12.70;66.30
24618;DHT22;12762;51.730;5.356;2023-05-28T04:12:25;12.70;66.10
24618;DHT22;12762;51.730;5.356;2023-05-28T04:14:52;12.80;66.20
24618;DHT22;12762;51.730;5.356;2023-05-28T04:17:22;12.70;66.10
24618;DHT22;12762;51.730;5.356;2023-05-28T04:19:49;12.80;66.40
24618;DHT22;12762;51.730;5.356;2023-05-28T04:22:17;12.80;66.70
24618;DHT22;12762;51.730;5.356;2023-05-28T04:24:44;12.80;66.70
24618;DHT22;12762;51.730;5.356;2023-05-28T04:27:13;12.80;66.80
24618;DHT22;12762;51.730;5.356;2023-05-28T04:29:40;12.80;66.90
24618;DHT22;12762;51.730;5.356;2023-05-28T04:32:07;12.80;67.00
24618;DHT22;12762;51.730;5.356;2023-05-28T04:34:38;12.80;67.00
24618;DHT22;12762;51.730;5.356;2023-05-28T04:37:07;12.80;67.20
24618;DHT22;12762;51.730;5.356;2023-05-28T04:39:34;12.80;67.30
24618;DHT22;12762;51.730;5.356;2023-05-28T04:42:01;12.90;67.40
24618;DHT22;12762;51.730;5.356;2023-05-28T04:44:30;12.80;67.30
24618;DHT22;12762;51.730;5.356;2023-05-28T04:47:01;12.90;68.20
24618;DHT22;12762;51.730;5.356;2023-05-28T04:49:30;12.90;68.00
24618;DHT22;12762;51.730;5.356;2023-05-28T04:51:58;12.90;67.40
24618;DHT22;12762;51.730;5.356;2023-05-28T04:54:25;12.90;67.60
24618;DHT22;12762;51.730;5.356;2023-05-28T04:56:53;12.90;67.80
24618;DHT22;12762;51.730;5.356;2023-05-28T04:59:25;13.00;67.90
24618;DHT22;12762;51.730;5.356;2023-05-28T05:01:53;13.00;67.90
24618;DHT22;12762;51.730;5.356;2023-05-28T05:04:20;13.10;68.10
24618;DHT22;12762;51.730;5.356;2023-05-28T05:06:47;13.10;68.00
24618;DHT22;12762;51.730;5.356;2023-05-28T05:09:14;13.20;68.10
24618;DHT22;12762;51.730;5.356;2023-05-28T05:11:40;13.20;68.10
24618;DHT22;12762;51.730;5.356;2023-05-28T05:14:07;13.30;68.20
24618;DHT22;12762;51.730;5.356;2023-05-28T05:16:34;13.40;68.20
24618;DHT22;12762;51.730;5.356;2023-05-28T05:19:01;13.40;68.20
24618;DHT22;12762;51.730;5.356;2023-05-28T05:21:29;13.50;68.40
24618;DHT22;12762;51.730;5.356;2023-05-28T05:23:56;13.60;68.50
24618;DHT22;12762;51.730;5.356;2023-05-28T05:26:22;13.70;68.60
24618;DHT22;12762;51.730;5.356;2023-05-28T05:28:49;13.80;68.70
24618;DHT22;12762;51.730;5.356;2023-05-28T05:31:17;14.00;68.80
24618;DHT22;12762;51.730;5.356;2023-05-28T05:33:44;14.10;68.70
24618;DHT22;12762;51.730;5.356;2023-05-28T05:36:11;14.20;68.60
24618;DHT22;12762;51.730;5.356;2023-05-28T05:38:41;14.30;68.60
24618;DHT22;12762;51.730;5.356;2023-05-28T05:41:08;14.50;68.70
24618;DHT22;12762;51.730;5.356;2023-05-28T05:43:34;14.50;68.50
24618;DHT22;12762;51.730;5.356;2023-05-28T05:46:01;14.60;68.40
24618;DHT22;12762;51.730;5.356;2023-05-28T05:48:28;14.70;68.40
24618;DHT22;12762;51.730;5.356;2023-05-28T05:50:55;14.80;68.30
24618;DHT22;12762;51.730;5.356;2023-05-28T05:53:24;14.90;68.40
24618;DHT22;12762;51.730;5.356;2023-05-28T05:55:51;14.90;68.10
24618;DHT22;12762;51.730;5.356;2023-05-28T05:58:18;14.90;68.10
24618;DHT22;12762;51.730;5.356;2023-05-28T06:00:45;15.00;68.20
24618;DHT22;12762;51.730;5.356;2023-05-28T06:03:14;15.00;68.20
24618;DHT22;12762;51.730;5.356;2023-05-28T06:05:40;15.10;68.40
24618;DHT22;12762;51.730;5.356;2023-05-28T06:08:07;15.20;68.40
24618;DHT22;12762;51.730;5.356;2023-05-28T06:10:35;15.30;68.50
24618;DHT22;12762;51.730;5.356;2023-05-28T06:13:01;15.30;68.20
24618;DHT22;12762;51.730;5.356;2023-05-28T06:15:29;15.50;68.20
24618;DHT22;12762;51.730;5.356;2023-05-28T06:17:56;15.50;68.20
24618;DHT22;12762;51.730;5.356;2023-05-28T06:20:23;15.60;68.20
24618;DHT22;12762;51.730;5.356;2023-05-28T06:22:50;15.70;68.10
24618;DHT22;12762;51.730;5.356;2023-05-28T06:25:17;15.80;67.90
24618;DHT22;12762;51.730;5.356;2023-05-28T06:27:44;15.90;67.90
24618;DHT22;12762;51.730;5.356;2023-05-28T06:30:11;15.90;67.80
24618;DHT22;12762;51.730;5.356;2023-05-28T06:32:38;16.00;67.50
24618;DHT22;12762;51.730;5.356;2023-05-28T06:35:06;16.00;67.40
24618;DHT22;12762;51.730;5.356;2023-05-28T06:37:36;16.00;67.20
24618;DHT22;12762;51.730;5.356;2023-05-28T06:40:07;16.10;67.20
24618;DHT22;12762;51.730;5.356;2023-05-28T06:42:34;16.10;67.10
24618;DHT22;12762;51.730;5.356;2023-05-28T06:45:05;16.10;67.00
24618;DHT22;12762;51.730;5.356;2023-05-28T06:47:32;16.10;67.00
24618;DHT22;12762;51.730;5.356;2023-05-28T06:49:59;16.20;67.00
24618;DHT22;12762;51.730;5.356;2023-05-28T06:52:26;16.20;66.80
24618;DHT22;12762;51.730;5.356;2023-05-28T06:54:53;16.20;66.80
24618;DHT22;12762;51.730;5.356;2023-05-28T06:57:20;16.30;66.90
24618;DHT22;12762;51.730;5.356;2023-05-28T06:59:47;16.40;67.00
24618;DHT22;12762;51.730;5.356;2023-05-28T07:02:14;16.50;67.40
24618;DHT22;12762;51.730;5.356;2023-05-28T07:04:44;17.00;68.60
24618;DHT22;12762;51.730;5.356;2023-05-28T07:07:11;17.70;68.90
24618;DHT22;12762;51.730;5.356;2023-05-28T07:09:38;18.60;68.20
24618;DHT22;12762;51.730;5.356;2023-05-28T07:12:05;19.30;67.20
24618;DHT22;12762;51.730;5.356;2023-05-28T07:14:32;20.20;66.30
24618;DHT22;12762;51.730;5.356;2023-05-28T07:16:59;21.10;64.70
24618;DHT22;12762;51.730;5.356;2023-05-28T07:19:26;21.90;63.10
24618;DHT22;12762;51.730;5.356;2023-05-28T07:21:53;22.50;61.50
24618;DHT22;12762;51.730;5.356;2023-05-28T07:24:20;23.20;60.80
24618;DHT22;12762;51.730;5.356;2023-05-28T07:26:47;23.80;59.80
24618;DHT22;12762;51.730;5.356;2023-05-28T07:29:14;24.30;58.70
24618;DHT22;12762;51.730;5.356;2023-05-28T07:31:43;24.50;57.50
24618;DHT22;12762;51.730;5.356;2023-05-28T07:34:10;24.50;56.90
24618;DHT22;12762;51.730;5.356;2023-05-28T07:36:37;24.40;57.10
24618;DHT22;12762;51.730;5.356;2023-05-28T07:39:04;24.60;57.20
24618;DHT22;12762;51.730;5.356;2023-05-28T07:41:34;25.00;57.70
24618;DHT22;12762;51.730;5.356;2023-05-28T07:44:01;25.30;56.30
24618;DHT22;12762;51.730;5.356;2023-05-28T07:46:28;25.70;56.10
24618;DHT22;12762;51.730;5.356;2023-05-28T07:48:55;26.00;55.70
24618;DHT22;12762;51.730;5.356;2023-05-28T07:51:22;26.30;55.40
24618;DHT22;12762;51.730;5.356;2023-05-28T07:53:49;26.50;54.70
24618;DHT22;12762;51.730;5.356;2023-05-28T07:56:16;26.80;53.80
24618;DHT22;12762;51.730;5.356;2023-05-28T07:58:46;26.90;53.60
24618;DHT22;12762;51.730;5.356;2023-05-28T08:01:13;27.00;52.90
24618;DHT22;12762;51.730;5.356;2023-05-28T08:03:40;27.10;53.00
24618;DHT22;12762;51.730;5.356;2023-05-28T08:06:07;27.20;53.20
24618;DHT22;12762;51.730;5.356;2023-05-28T08:08:35;27.30;52.80
24618;DHT22;12762;51.730;5.356;2023-05-28T08:11:02;27.30;52.40
24618;DHT22;12762;51.730;5.356;2023-05-28T08:13:29;27.30;52.40
24618;DHT22;12762;51.730;5.356;2023-05-28T08:16:01;27.40;52.60
24618;DHT22;12762;51.730;5.356;2023-05-28T08:18:31;27.50;52.00
24618;DHT22;12762;51.730;5.356;2023-05-28T08:21:01;27.60;51.70
24618;DHT22;12762;51.730;5.356;2023-05-28T08:23:28;27.50;51.30
24618;DHT22;12762;51.730;5.356;2023-05-28T08:25:56;27.50;51.10
24618;DHT22;12762;51.730;5.356;2023-05-28T08:28:24;27.50;51.20
24618;DHT22;12762;51.730;5.356;2023-05-28T08:30:51;27.70;51.20
24618;DHT22;12762;51.730;5.356;2023-05-28T08:33:19;27.90;50.90
24618;DHT22;12762;51.730;5.356;2023-05-28T08:35:46;28.10;50.80
24618;DHT22;12762;51.730;5.356;2023-05-28T08:38:13;28.30;50.20
24618;DHT22;12762;51.730;5.356;2023-05-28T08:40:44;28.50;49.70
24618;DHT22;12762;51.730;5.356;2023-05-28T08:43:16;28.70;49.70
24618;DHT22;12762;51.730;5.356;2023-05-28T08:45:43;29.00;49.20
24618;DHT22;12762;51.730;5.356;2023-05-28T08:48:14;29.10;49.00
24618;DHT22;12762;51.730;5.356;2023-05-28T08:50:46;29.30;48.60
24618;DHT22;12762;51.730;5.356;2023-05-28T08:53:16;29.20;48.00
24618;DHT22;12762;51.730;5.356;2023-05-28T08:55:45;29.10;47.50
24618;DHT22;12762;51.730;5.356;2023-05-28T08:58:13;29.00;47.70
24618;DHT22;12762;51.730;5.356;2023-05-28T09:00:41;29.00;47.00
24618;DHT22;12762;51.730;5.356;2023-05-28T09:03:08;29.00;47.00
24618;DHT22;12762;51.730;5.356;2023-05-28T09:05:36;29.10;46.90
24618;DHT22;12762;51.730;5.356;2023-05-28T09:08:09;29.30;47.10
24618;DHT22;12762;51.730;5.356;2023-05-28T09:10:37;29.50;46.80
24618;DHT22;12762;51.730;5.356;2023-05-28T09:13:04;29.50;46.50
24618;DHT22;12762;51.730;5.356;2023-05-28T09:15:32;29.50;45.70
24618;DHT22;12762;51.730;5.356;2023-05-28T09:18:04;29.40;45.60
24618;DHT22;12762;51.730;5.356;2023-05-28T09:20:32;29.30;45.60
24618;DHT22;12762;51.730;5.356;2023-05-28T09:23:03;29.10;45.60
24618;DHT22;12762;51.730;5.356;2023-05-28T09:25:34;29.10;45.60
24618;DHT22;12762;51.730;5.356;2023-05-28T09:28:03;29.10;45.70
24618;DHT22;12762;51.730;5.356;2023-05-28T09:30:34;29.20;45.50
24618;DHT22;12762;51.730;5.356;2023-05-28T09:33:03;29.10;45.60
24618;DHT22;12762;51.730;5.356;2023-05-28T09:35:31;29.00;45.60
24618;DHT22;12762;51.730;5.356;2023-05-28T09:38:06;28.80;45.80
24618;DHT22;12762;51.730;5.356;2023-05-28T09:40:38;28.60;45.10
24618;DHT22;12762;51.730;5.356;2023-05-28T09:43:09;28.40;45.40
24618;DHT22;12762;51.730;5.356;2023-05-28T09:45:36;28.30;45.60
24618;DHT22;12762;51.730;5.356;2023-05-28T09:48:03;28.30;45.60
24618;DHT22;12762;51.730;5.356;2023-05-28T09:50:31;28.30;45.60
24618;DHT22;12762;51.730;5.356;2023-05-28T09:52:59;28.20;45.90
24618;DHT22;12762;51.730;5.356;2023-05-28T09:55:28;28.30;46.00
24618;DHT22;12762;51.730;5.356;2023-05-28T09:58:04;28.20;46.10
24618;DHT22;12762;51.730;5.356;2023-05-28T10:00:35;28.10;46.50
24618;DHT22;12762;51.730;5.356;2023-05-28T10:06:04;28.30;46.70
24618;DHT22;12762;51.730;5.356;2023-05-28T10:08:33;28.40;46.70
24618;DHT22;12762;51.730;5.356;2023-05-28T10:11:10;28.60;46.60
24618;DHT22;12762;51.730;5.356;2023-05-28T10:13:40;28.80;46.20
24618;DHT22;12762;51.730;5.356;2023-05-28T10:16:07;29.10;45.70
24618;DHT22;12762;51.730;5.356;2023-05-28T10:18:34;29.30;45.10
24618;DHT22;12762;51.730;5.356;2023-05-28T10:21:05;29.40;45.00
24618;DHT22;12762;51.730;5.356;2023-05-28T10:23:33;29.40;44.80
24618;DHT22;12762;51.730;5.356;2023-05-28T10:26:01;29.50;45.00
24618;DHT22;12762;51.730;5.356;2023-05-28T10:28:32;29.60;44.70
24618;DHT22;12762;51.730;5.356;2023-05-28T10:31:06;29.60;43.30
24618;DHT22;12762;51.730;5.356;2023-05-28T10:33:43;29.40;43.50
24618;DHT22;12762;51.730;5.356;2023-05-28T10:36:14;29.50;43.50
24618;DHT22;12762;51.730;5.356;2023-05-28T10:39:07;29.50;43.40
24618;DHT22;12762;51.730;5.356;2023-05-28T10:41:33;29.60;42.90
24618;DHT22;12762;51.730;5.356;2023-05-28T10:44:06;29.70;42.60
24618;DHT22;12762;51.730;5.356;2023-05-28T10:46:38;29.90;42.10
24618;DHT22;12762;51.730;5.356;2023-05-28T10:49:13;29.90;41.90
24618;DHT22;12762;51.730;5.356;2023-05-28T10:59:58;30.10;41.20
24618;DHT22;12762;51.730;5.356;2023-05-28T11:02:28;30.10;41.10
24618;DHT22;12762;51.730;5.356;2023-05-28T11:04:59;30.10;40.70
24618;DHT22;12762;51.730;5.356;2023-05-28T11:07:35;30.30;40.50
24618;DHT22;12762;51.730;5.356;2023-05-28T11:10:05;30.40;40.60
24618;DHT22;12762;51.730;5.356;2023-05-28T11:12:38;30.40;39.60
24618;DHT22;12762;51.730;5.356;2023-05-28T11:15:09;30.30;39.90
24618;DHT22;12762;51.730;5.356;2023-05-28T11:17:38;30.30;40.40
24618;DHT22;12762;51.730;5.356;2023-05-28T11:22:48;30.50;40.40
24618;DHT22;12762;51.730;5.356;2023-05-28T11:25:15;30.50;40.50
24618;DHT22;12762;51.730;5.356;2023-05-28T11:27:47;30.40;40.30
24618;DHT22;12762;51.730;5.356;2023-05-28T11:30:15;30.30;39.70
24618;DHT22;12762;51.730;5.356;2023-05-28T11:32:44;30.00;40.00
24618;DHT22;12762;51.730;5.356;2023-05-28T11:35:15;29.90;40.00
24618;DHT22;12762;51.730;5.356;2023-05-28T11:37:45;29.80;40.10
24618;DHT22;12762;51.730;5.356;2023-05-28T11:40:13;29.80;40.30
24618;DHT22;12762;51.730;5.356;2023-05-28T11:42:42;29.90;40.20
24618;DHT22;12762;51.730;5.356;2023-05-28T11:45:10;30.00;40.50
24618;DHT22;12762;51.730;5.356;2023-05-28T11:47:39;30.10;40.20
24618;DHT22;12762;51.730;5.356;2023-05-28T11:52:34;30.10;39.90
24618;DHT22;12762;51.730;5.356;2023-05-28T11:55:02;30.10;40.00
24618;DHT22;12762;51.730;5.356;2023-05-28T11:57:32;30.00;39.40
24618;DHT22;12762;51.730;5.356;2023-05-28T12:00:11;29.90;39.30
24618;DHT22;12762;51.730;5.356;2023-05-28T12:02:47;29.80;39.30
24618;DHT22;12762;51.730;5.356;2023-05-28T12:05:15;29.80;40.20
24618;DHT22;12762;51.730;5.356;2023-05-28T12:07:46;29.80;39.60
24618;DHT22;12762;51.730;5.356;2023-05-28T12:10:16;29.80;38.80
24618;DHT22;12762;51.730;5.356;2023-05-28T12:12:50;29.60;38.80
24618;DHT22;12762;51.730;5.356;2023-05-28T12:15:21;29.70;39.30
24618;DHT22;12762;51.730;5.356;2023-05-28T12:18:00;29.70;38.90
24618;DHT22;12762;51.730;5.356;2023-05-28T12:20:37;29.90;39.20
24618;DHT22;12762;51.730;5.356;2023-05-28T12:28:11;30.10;39.00
24618;DHT22;12762;51.730;5.356;2023-05-28T12:30:41;30.10;38.80
24618;DHT22;12762;51.730;5.356;2023-05-28T12:33:11;30.20;39.00
24618;DHT22;12762;51.730;5.356;2023-05-28T12:35:41;30.40;38.70
24618;DHT22;12762;51.730;5.356;2023-05-28T12:38:08;30.50;39.10
24618;DHT22;12762;51.730;5.356;2023-05-28T12:40:35;30.60;39.10
24618;DHT22;12762;51.730;5.356;2023-05-28T12:43:03;30.70;38.80
24618;DHT22;12762;51.730;5.356;2023-05-28T12:45:32;30.90;39.40
24618;DHT22;12762;51.730;5.356;2023-05-28T12:48:08;31.20;39.40
24618;DHT22;12762;51.730;5.356;2023-05-28T12:50:35;31.40;39.60
24618;DHT22;12762;51.730;5.356;2023-05-28T12:53:02;31.60;38.90
24618;DHT22;12762;51.730;5.356;2023-05-28T12:55:32;31.70;38.70
24618;DHT22;12762;51.730;5.356;2023-05-28T12:57:59;31.90;38.00
24618;DHT22;12762;51.730;5.356;2023-05-28T13:00:26;32.00;37.20
24618;DHT22;12762;51.730;5.356;2023-05-28T13:02:53;32.20;37.10
24618;DHT22;12762;51.730;5.356;2023-05-28T13:05:20;32.30;37.30
24618;DHT22;12762;51.730;5.356;2023-05-28T13:07:47;32.40;36.80
24618;DHT22;12762;51.730;5.356;2023-05-28T13:10:14;32.30;36.20
24618;DHT22;12762;51.730;5.356;2023-05-28T13:12:41;32.10;36.70
24618;DHT22;12762;51.730;5.356;2023-05-28T13:15:08;32.10;36.70
24618;DHT22;12762;51.730;5.356;2023-05-28T13:17:35;32.20;36.50
24618;DHT22;12762;51.730;5.356;2023-05-28T13:20:05;32.30;36.60
24618;DHT22;12762;51.730;5.356;2023-05-28T13:22:34;32.40;36.80
24618;DHT22;12762;51.730;5.356;2023-05-28T13:25:04;32.50;36.90
24618;DHT22;12762;51.730;5.356;2023-05-28T13:27:31;32.60;36.30
24618;DHT22;12762;51.730;5.356;2023-05-28T13:29:58;32.80;36.70
24618;DHT22;12762;51.730;5.356;2023-05-28T13:32:26;32.90;36.50
24618;DHT22;12762;51.730;5.356;2023-05-28T13:34:53;32.90;36.10
24618;DHT22;12762;51.730;5.356;2023-05-28T13:37:20;32.80;36.10
24618;DHT22;12762;51.730;5.356;2023-05-28T13:39:47;32.80;36.00
24618;DHT22;12762;51.730;5.356;2023-05-28T13:42:14;32.90;35.40
24618;DHT22;12762;51.730;5.356;2023-05-28T13:44:47;32.80;35.70
24618;DHT22;12762;51.730;5.356;2023-05-28T13:47:15;32.90;35.80
24618;DHT22;12762;51.730;5.356;2023-05-28T13:49:42;33.00;35.80
24618;DHT22;12762;51.730;5.356;2023-05-28T13:52:09;33.00;35.60
24618;DHT22;12762;51.730;5.356;2023-05-28T13:54:36;33.00;35.00
24618;DHT22;12762;51.730;5.356;2023-05-28T13:57:05;33.00;35.10
24618;DHT22;12762;51.730;5.356;2023-05-28T13:59:35;33.00;35.30
24618;DHT22;12762;51.730;5.356;2023-05-28T14:02:03;33.00;35.20
24618;DHT22;12762;51.730;5.356;2023-05-28T14:04:30;33.00;34.90
24618;DHT22;12762;51.730;5.356;2023-05-28T14:06:57;33.00;35.20
24618;DHT22;12762;51.730;5.356;2023-05-28T14:09:24;33.00;35.20
24618;DHT22;12762;51.730;5.356;2023-05-28T14:11:51;32.90;35.10
24618;DHT22;12762;51.730;5.356;2023-05-28T14:14:21;32.90;34.70
24618;DHT22;12762;51.730;5.356;2023-05-28T14:16:51;32.90;35.40
24618;DHT22;12762;51.730;5.356;2023-05-28T14:19:18;33.00;35.00
24618;DHT22;12762;51.730;5.356;2023-05-28T14:21:45;33.00;34.30
24618;DHT22;12762;51.730;5.356;2023-05-28T14:24:12;32.80;33.90
24618;DHT22;12762;51.730;5.356;2023-05-28T14:26:39;32.60;34.90
24618;DHT22;12762;51.730;5.356;2023-05-28T14:29:06;32.50;34.70
24618;DHT22;12762;51.730;5.356;2023-05-28T14:31:33;32.40;34.70
24618;DHT22;12762;51.730;5.356;2023-05-28T14:34:00;32.30;34.50
24618;DHT22;12762;51.730;5.356;2023-05-28T14:36:27;32.30;34.50
24618;DHT22;12762;51.730;5.356;2023-05-28T14:38:53;32.30;34.40
24618;DHT22;12762;51.730;5.356;2023-05-28T14:41:20;32.10;34.40
24618;DHT22;12762;51.730;5.356;2023-05-28T14:43:47;32.00;34.60
24618;DHT22;12762;51.730;5.356;2023-05-28T14:46:14;31.90;35.20
24618;DHT22;12762;51.730;5.356;2023-05-28T14:48:41;31.80;34.50
24618;DHT22;12762;51.730;5.356;2023-05-28T14:51:08;31.80;34.90
24618;DHT22;12762;51.730;5.356;2023-05-28T14:53:35;31.70;34.80
24618;DHT22;12762;51.730;5.356;2023-05-28T14:56:06;31.60;34.80
24618;DHT22;12762;51.730;5.356;2023-05-28T14:58:34;31.40;35.00
24618;DHT22;12762;51.730;5.356;2023-05-28T15:01:01;31.20;34.60
24618;DHT22;12762;51.730;5.356;2023-05-28T15:03:30;31.00;35.00
24618;DHT22;12762;51.730;5.356;2023-05-28T15:05:58;30.80;35.20
24618;DHT22;12762;51.730;5.356;2023-05-28T15:08:25;30.70;35.30
24618;DHT22;12762;51.730;5.356;2023-05-28T15:10:52;30.50;35.30
24618;DHT22;12762;51.730;5.356;2023-05-28T15:13:21;30.30;35.30
24618;DHT22;12762;51.730;5.356;2023-05-28T15:15:48;30.20;35.60
24618;DHT22;12762;51.730;5.356;2023-05-28T15:18:15;30.10;36.30
24618;DHT22;12762;51.730;5.356;2023-05-28T15:20:42;30.00;36.70
24618;DHT22;12762;51.730;5.356;2023-05-28T15:23:12;29.80;36.90
24618;DHT22;12762;51.730;5.356;2023-05-28T15:25:42;29.60;36.80
24618;DHT22;12762;51.730;5.356;2023-05-28T15:28:09;29.50;36.90
24618;DHT22;12762;51.730;5.356;2023-05-28T15:30:41;29.50;36.70
24618;DHT22;12762;51.730;5.356;2023-05-28T15:33:10;29.40;36.60
24618;DHT22;12762;51.730;5.356;2023-05-28T15:35:37;29.40;36.70
24618;DHT22;12762;51.730;5.356;2023-05-28T15:38:04;29.30;37.20
24618;DHT22;12762;51.730;5.356;2023-05-28T15:40:31;29.30;37.60
24618;DHT22;12762;51.730;5.356;2023-05-28T15:43:02;29.10;37.70
24618;DHT22;12762;51.730;5.356;2023-05-28T15:45:30;28.90;37.80
24618;DHT22;12762;51.730;5.356;2023-05-28T15:48:00;28.80;38.00
24618;DHT22;12762;51.730;5.356;2023-05-28T15:50:27;28.70;38.10
24618;DHT22;12762;51.730;5.356;2023-05-28T15:52:54;28.60;38.10
24618;DHT22;12762;51.730;5.356;2023-05-28T15:55:21;28.50;38.30
24618;DHT22;12762;51.730;5.356;2023-05-28T15:57:48;28.30;38.30